sensor_id;sensor_type;location;lat;lon;timestamp;pressure;altitude;pressure_sealevel;temperature;humidity
48200;BME280;33990;44.602;10.976;2024-01-15T00:00:40;100160.03;;;18.26;41.89
48200;BME280;33990;44.602;10.976;2024-01-15T00:03:08;100147.63;;;18.25;41.92
48200;BME280;33990;44.602;10.976;2024-01-15T00:05:36;100129.88;;;18.24;41.83
48200;BME280;33990;44.602;10.976;2024-01-15T00:08:04;100121.84;;;18.24;41.90
48200;BME280;33990;44.602;10.976;2024-01-15T00:10:31;100120.00;;;18.25;41.72
48200;BME280;33990;44.602;10.976;2024-01-15T00:12:59;100124.53;;;18.24;41.81
48200;BME280;33990;44.602;10.976;2024-01-15T00:15:26;100129.88;;;18.24;41.80
48200;BME280;33990;44.602;10.976;2024-01-15T00:17:55;100119.28;;;18.23;41.70
48200;BME280;33990;44.602;10.976;2024-01-15T00:20:23;100124.66;;;18.23;41.66
48200;BME280;33990;44.602;10.976;2024-01-15T00:22:52;100110.41;;;18.22;41.72
48200;BME280;33990;44.602;10.976;2024-01-15T00:25:19;100102.38;;;18.22;41.61
48200;BME280;33990;44.602;10.976;2024-01-15T00:27:47;100094.31;;;18.22;41.66
48200;BME280;33990;44.602;10.976;2024-01-15T00:30:14;100096.16;;;18.22;41.72
48200;BME280;33990;44.602;10.976;2024-01-15T00:32:42;100099.69;;;18.22;41.63
48200;BME280;33990;44.602;10.976;2024-01-15T00:35:09;100088.13;;;18.22;41.69
48200;BME280;33990;44.602;10.976;2024-01-15T00:37:36;100081.09;;;18.21;41.66
48200;BME280;33990;44.602;10.976;2024-01-15T00:40:05;100079.25;;;18.21;41.60
48200;BME280;33990;44.602;10.976;2024-01-15T00:42:33;100074.03;;;18.20;41.53
48200;BME280;33990;44.602;10.976;2024-01-15T00:45:00;100066.00;;;18.20;41.53
48200;BME280;33990;44.602;10.976;2024-01-15T00:47:27;100055.28;;;18.20;41.62
48200;BME280;33990;44.602;10.976;2024-01-15T00:49:55;100061.50;;;18.20;41.65
48200;BME280;33990;44.602;10.976;2024-01-15T00:52:22;100056.25;;;18.19;41.55
48200;BME280;33990;44.602;10.976;2024-01-15T00:54:50;100064.16;;;18.20;41.58
48200;BME280;33990;44.602;10.976;2024-01-15T00:57:17;100074.16;;;18.18;41.60
48200;BME280;33990;44.602;10.976;2024-01-15T00:59:46;100066.13;;;18.18;41.57
48200;BME280;33990;44.602;10.976;2024-01-15T01:02:14;100057.25;;;18.18;41.56
48200;BME280;33990;44.602;10.976;2024-01-15T01:04:41;100051.91;;;18.18;41.64
48200;BME280;33990;44.602;10.976;2024-01-15T01:07:08;100060.78;;;18.18;41.63
48200;BME280;33990;44.602;10.976;2024-01-15T01:09:36;100067.13;;;18.17;41.77
48200;BME280;33990;44.602;10.976;2024-01-15T01:12:03;100053.72;;;18.17;41.56
48200;BME280;33990;44.602;10.976;2024-01-15T01:14:31;100061.78;;;18.17;41.69
48200;BME280;33990;44.602;10.976;2024-01-15T01:16:59;100055.56;;;18.17;41.61
48200;BME280;33990;44.602;10.976;2024-01-15T01:19:26;100050.38;;;18.15;41.61
48200;BME280;33990;44.602;10.976;2024-01-15T01:21:54;100054.84;;;18.15;41.65
48200;BME280;33990;44.602;10.976;2024-01-15T01:24:21;100050.38;;;18.15;41.54
48200;BME280;33990;44.602;10.976;2024-01-15T01:26:49;100048.66;;;18.14;41.48
48200;BME280;33990;44.602;10.976;2024-01-15T01:29:17;100047.81;;;18.14;41.62
48200;BME280;33990;44.602;10.976;2024-01-15T01:31:45;100051.34;;;18.14;41.59
48200;BME280;33990;44.602;10.976;2024-01-15T01:34:16;100054.00;;;18.14;41.51
48200;BME280;33990;44.602;10.976;2024-01-15T01:36:43;100045.13;;;18.14;41.53
48200;BME280;33990;44.602;10.976;2024-01-15T01:39:11;100033.56;;;18.13;41.61
48200;BME280;33990;44.602;10.976;2024-01-15T01:41:39;100030.06;;;18.13;41.57
48200;BME280;33990;44.602;10.976;2024-01-15T01:44:07;100032.91;;;18.11;41.63
48200;BME280;33990;44.602;10.976;2024-01-15T01:46:36;100038.25;;;18.11;41.71
48200;BME280;33990;44.602;10.976;2024-01-15T01:49:08;100037.38;;;18.11;41.73
48200;BME280;33990;44.602;10.976;2024-01-15T01:51:37;100024.13;;;18.09;41.69
48200;BME280;33990;44.602;10.976;2024-01-15T01:54:08;100024.13;;;18.09;41.75
48200;BME280;33990;44.602;10.976;2024-01-15T01:56:36;100005.53;;;18.08;41.61
48200;BME280;33990;44.602;10.976;2024-01-15T01:59:04;100016.25;;;18.08;41.52
48200;BME280;33990;44.602;10.976;2024-01-15T02:01:33;100024.28;;;18.08;41.51
48200;BME280;33990;44.602;10.976;2024-01-15T02:04:01;100033.28;;;18.07;41.55
48200;BME280;33990;44.602;10.976;2024-01-15T02:06:28;100035.13;;;18.06;41.54
48200;BME280;33990;44.602;10.976;2024-01-15T02:08:56;100025.41;;;18.05;41.58
48200;BME280;33990;44.602;10.976;2024-01-15T02:11:24;100025.25;;;18.07;41.52
48200;BME280;33990;44.602;10.976;2024-01-15T02:13:51;100024.41;;;18.06;41.56
48200;BME280;33990;44.602;10.976;2024-01-15T02:16:19;100016.38;;;18.06;41.57
48200;BME280;33990;44.602;10.976;2024-01-15T02:18:47;100014.53;;;18.07;41.57
48200;BME280;33990;44.602;10.976;2024-01-15T02:21:15;100012.88;;;18.06;41.45
48200;BME280;33990;44.602;10.976;2024-01-15T02:23:42;100013.03;;;18.04;41.63
48200;BME280;33990;44.602;10.976;2024-01-15T02:26:10;99998.63;;;18.05;41.58
48200;BME280;33990;44.602;10.976;2024-01-15T02:28:37;100005.81;;;18.04;41.56
48200;BME280;33990;44.602;10.976;2024-01-15T02:31:05;100001.31;;;18.05;41.63
48200;BME280;33990;44.602;10.976;2024-01-15T02:33:32;100000.47;;;18.04;41.62
48200;BME280;33990;44.602;10.976;2024-01-15T02:36:00;99999.63;;;18.04;41.69
48200;BME280;33990;44.602;10.976;2024-01-15T02:38:27;100006.81;;;18.03;41.51
48200;BME280;33990;44.602;10.976;2024-01-15T02:40:55;100005.00;;;18.04;41.70
48200;BME280;33990;44.602;10.976;2024-01-15T02:43:22;100004.16;;;18.03;41.62
48200;BME280;33990;44.602;10.976;2024-01-15T02:45:49;99995.13;;;18.04;41.71
48200;BME280;33990;44.602;10.976;2024-01-15T02:48:17;99992.59;;;18.03;41.69
48200;BME280;33990;44.602;10.976;2024-01-15T02:50:44;99981.88;;;18.03;41.59
48200;BME280;33990;44.602;10.976;2024-01-15T02:53:12;99971.16;;;18.03;41.68
48200;BME280;33990;44.602;10.976;2024-01-15T02:55:39;99974.81;;;18.02;41.54
48200;BME280;33990;44.602;10.976;2024-01-15T02:58:07;99970.28;;;18.02;41.71
48200;BME280;33990;44.602;10.976;2024-01-15T03:00:34;99966.78;;;18.02;41.68
48200;BME280;33990;44.602;10.976;2024-01-15T03:03:02;99962.41;;;18.01;41.75
48200;BME280;33990;44.602;10.976;2024-01-15T03:05:29;99955.38;;;18.00;41.60
48200;BME280;33990;44.602;10.976;2024-01-15T03:07:57;99952.69;;;18.00;41.42
48200;BME280;33990;44.602;10.976;2024-01-15T03:10:24;99959.06;;;17.99;41.67
48200;BME280;33990;44.602;10.976;2024-01-15T03:12:51;99966.22;;;17.98;41.63
48200;BME280;33990;44.602;10.976;2024-01-15T03:15:19;99960.00;;;17.98;41.42
48200;BME280;33990;44.602;10.976;2024-01-15T03:17:46;99956.50;;;17.97;41.58
48200;BME280;33990;44.602;10.976;2024-01-15T03:20:14;99948.63;;;17.96;41.61
48200;BME280;33990;44.602;10.976;2024-01-15T03:22:41;99944.09;;;17.96;41.56
48200;BME280;33990;44.602;10.976;2024-01-15T03:25:09;99934.38;;;17.95;41.53
48200;BME280;33990;44.602;10.976;2024-01-15T03:27:36;99936.22;;;17.95;41.58
48200;BME280;33990;44.602;10.976;2024-01-15T03:30:04;99912.13;;;17.95;41.54
48200;BME280;33990;44.602;10.976;2024-01-15T03:32:32;99902.38;;;17.94;41.65
48200;BME280;33990;44.602;10.976;2024-01-15T03:34:59;99903.38;;;17.93;41.57
48200;BME280;33990;44.602;10.976;2024-01-15T03:37:27;99900.69;;;17.93;41.64
48200;BME280;33990;44.602;10.976;2024-01-15T03:39:55;99895.34;;;17.93;41.56
48200;BME280;33990;44.602;10.976;2024-01-15T03:42:22;99888.16;;;17.93;41.56
48200;BME280;33990;44.602;10.976;2024-01-15T03:44:50;99875.75;;;17.92;41.42
48200;BME280;33990;44.602;10.976;2024-01-15T03:47:17;99856.19;;;17.92;41.40
48200;BME280;33990;44.602;10.976;2024-01-15T03:49:44;99842.78;;;17.92;41.46
48200;BME280;33990;44.602;10.976;2024-01-15T03:52:12;99840.94;;;17.92;41.54
48200;BME280;33990;44.602;10.976;2024-01-15T03:54:39;99848.97;;;17.92;41.38
48200;BME280;33990;44.602;10.976;2024-01-15T03:57:07;99856.19;;;17.92;41.48
48200;BME280;33990;44.602;10.976;2024-01-15T03:59:34;99856.19;;;17.92;41.36
48200;BME280;33990;44.602;10.976;2024-01-15T04:02:01;99857.84;;;17.93;41.51
48200;BME280;33990;44.602;10.976;2024-01-15T04:04:28;99857.84;;;17.93;41.53
48200;BME280;33990;44.602;10.976;2024-01-15T04:06:56;99857.00;;;17.92;41.60
48200;BME280;33990;44.602;10.976;2024-01-15T04:09:23;99858.84;;;17.92;41.59
48200;BME280;33990;44.602;10.976;2024-01-15T04:11:51;99848.16;;;17.92;41.61
48200;BME280;33990;44.602;10.976;2024-01-15T04:14:18;99857.00;;;17.92;41.53
48200;BME280;33990;44.602;10.976;2024-01-15T04:16:46;99861.53;;;17.92;41.69
48200;BME280;33990;44.602;10.976;2024-01-15T04:19:13;99847.31;;;17.91;41.61
48200;BME280;33990;44.602;10.976;2024-01-15T04:21:40;99850.81;;;17.92;41.66
48200;BME280;33990;44.602;10.976;2024-01-15T04:24:08;99850.81;;;17.92;41.60
48200;BME280;33990;44.602;10.976;2024-01-15T04:26:36;99849.16;;;17.91;41.74
48200;BME280;33990;44.602;10.976;2024-01-15T04:29:03;99835.75;;;17.91;41.82
48200;BME280;33990;44.602;10.976;2024-01-15T04:31:30;99846.47;;;17.91;41.80
48200;BME280;33990;44.602;10.976;2024-01-15T04:33:58;99837.56;;;17.90;41.83
48200;BME280;33990;44.602;10.976;2024-01-15T04:36:25;99840.41;;;17.89;41.76
48200;BME280;33990;44.602;10.976;2024-01-15T04:38:53;99847.44;;;17.90;41.73
48200;BME280;33990;44.602;10.976;2024-01-15T04:41:20;99847.59;;;17.88;41.86
48200;BME280;33990;44.602;10.976;2024-01-15T04:43:48;99838.72;;;17.88;41.90
48200;BME280;33990;44.602;10.976;2024-01-15T04:46:16;99834.19;;;17.88;41.90
48200;BME280;33990;44.602;10.976;2024-01-15T04:48:43;99830.69;;;17.88;41.80
48200;BME280;33990;44.602;10.976;2024-01-15T04:51:11;99818.13;;;17.88;41.79
48200;BME280;33990;44.602;10.976;2024-01-15T04:53:38;99810.25;;;17.87;41.89
48200;BME280;33990;44.602;10.976;2024-01-15T04:56:05;99808.56;;;17.86;41.68
48200;BME280;33990;44.602;10.976;2024-01-15T04:58:33;99805.88;;;17.86;41.92
48200;BME280;33990;44.602;10.976;2024-01-15T05:01:00;99804.19;;;17.85;41.88
48200;BME280;33990;44.602;10.976;2024-01-15T05:03:27;99795.31;;;17.84;41.99
48200;BME280;33990;44.602;10.976;2024-01-15T05:05:55;99800.69;;;17.84;41.88
48200;BME280;33990;44.602;10.976;2024-01-15T05:08:22;99807.88;;;17.84;41.80
48200;BME280;33990;44.602;10.976;2024-01-15T05:10:50;99803.34;;;17.84;41.84
48200;BME280;33990;44.602;10.976;2024-01-15T05:13:17;99796.31;;;17.83;41.85
48200;BME280;33990;44.602;10.976;2024-01-15T05:15:45;99797.28;;;17.82;41.83
48200;BME280;33990;44.602;10.976;2024-01-15T05:18:12;99795.47;;;17.83;41.78
48200;BME280;33990;44.602;10.976;2024-01-15T05:20:40;99795.47;;;17.83;41.77
48200;BME280;33990;44.602;10.976;2024-01-15T05:23:07;99790.97;;;17.83;41.81
48200;BME280;33990;44.602;10.976;2024-01-15T05:25:35;99787.44;;;17.83;41.68
48200;BME280;33990;44.602;10.976;2024-01-15T05:28:02;99805.19;;;17.84;41.79
48200;BME280;33990;44.602;10.976;2024-01-15T05:30:29;99810.53;;;17.84;41.73
48200;BME280;33990;44.602;10.976;2024-01-15T05:32:57;99821.25;;;17.84;41.75
48200;BME280;33990;44.602;10.976;2024-01-15T05:35:24;99823.94;;;17.84;41.85
48200;BME280;33990;44.602;10.976;2024-01-15T05:37:52;99831.13;;;17.83;41.85
48200;BME280;33990;44.602;10.976;2024-01-15T05:40:19;99832.09;;;17.82;41.91
48200;BME280;33990;44.602;10.976;2024-01-15T05:42:47;99831.97;;;17.84;41.83
48200;BME280;33990;44.602;10.976;2024-01-15T05:45:14;99821.25;;;17.84;42.06
48200;BME280;33990;44.602;10.976;2024-01-15T05:47:42;99815.06;;;17.83;41.94
48200;BME280;33990;44.602;10.976;2024-01-15T05:50:11;99808.00;;;17.82;41.88
48200;BME280;33990;44.602;10.976;2024-01-15T05:52:40;99803.50;;;17.83;41.92
48200;BME280;33990;44.602;10.976;2024-01-15T05:55:08;99802.66;;;17.82;41.91
48200;BME280;33990;44.602;10.976;2024-01-15T05:57:36;99807.16;;;17.82;41.93
48200;BME280;33990;44.602;10.976;2024-01-15T06:00:05;99812.50;;;17.82;42.01
48200;BME280;33990;44.602;10.976;2024-01-15T06:02:32;99817.88;;;17.82;41.89
48200;BME280;33990;44.602;10.976;2024-01-15T06:05:00;99816.19;;;17.81;41.97
48200;BME280;33990;44.602;10.976;2024-01-15T06:07:28;99817.03;;;17.81;42.02
48200;BME280;33990;44.602;10.976;2024-01-15T06:09:56;99813.50;;;17.81;42.05
48200;BME280;33990;44.602;10.976;2024-01-15T06:12:24;99815.34;;;17.80;41.91
48200;BME280;33990;44.602;10.976;2024-01-15T06:14:51;99811.84;;;17.79;42.05
48200;BME280;33990;44.602;10.976;2024-01-15T06:17:19;99806.47;;;17.79;42.08
48200;BME280;33990;44.602;10.976;2024-01-15T06:19:46;99808.31;;;17.79;41.97
48200;BME280;33990;44.602;10.976;2024-01-15T06:22:16;99806.59;;;17.78;42.09
48200;BME280;33990;44.602;10.976;2024-01-15T06:24:43;99802.13;;;17.78;42.18
48200;BME280;33990;44.602;10.976;2024-01-15T06:27:10;99797.72;;;17.77;42.26
48200;BME280;33990;44.602;10.976;2024-01-15T06:29:38;99800.41;;;17.77;42.35
48200;BME280;33990;44.602;10.976;2024-01-15T06:32:06;99801.25;;;17.78;42.26
48200;BME280;33990;44.602;10.976;2024-01-15T06:34:33;99801.25;;;17.78;42.52
48200;BME280;33990;44.602;10.976;2024-01-15T06:37:01;99815.63;;;17.77;42.55
48200;BME280;33990;44.602;10.976;2024-01-15T06:39:28;99807.59;;;17.77;42.41
48200;BME280;33990;44.602;10.976;2024-01-15T06:41:56;99812.97;;;17.77;42.44
48200;BME280;33990;44.602;10.976;2024-01-15T06:44:24;99797.91;;;17.76;42.31
48200;BME280;33990;44.602;10.976;2024-01-15T06:46:51;99793.53;;;17.75;42.33
48200;BME280;33990;44.602;10.976;2024-01-15T06:49:18;99784.66;;;17.74;42.40
48200;BME280;33990;44.602;10.976;2024-01-15T06:51:46;99786.44;;;17.74;42.11
48200;BME280;33990;44.602;10.976;2024-01-15T06:54:15;99787.34;;;17.74;42.19
48200;BME280;33990;44.602;10.976;2024-01-15T06:56:43;99786.34;;;17.75;42.27
48200;BME280;33990;44.602;10.976;2024-01-15T06:59:10;99788.19;;;17.75;42.28
48200;BME280;33990;44.602;10.976;2024-01-15T07:01:38;99792.69;;;17.74;42.23
48200;BME280;33990;44.602;10.976;2024-01-15T07:04:05;99791.78;;;17.74;42.22
48200;BME280;33990;44.602;10.976;2024-01-15T07:06:32;99792.69;;;17.74;42.28
48200;BME280;33990;44.602;10.976;2024-01-15T07:09:00;99782.00;;;17.74;42.25
48200;BME280;33990;44.602;10.976;2024-01-15T07:11:27;99787.44;;;17.73;42.28
48200;BME280;33990;44.602;10.976;2024-01-15T07:13:54;99791.78;;;17.74;42.19
48200;BME280;33990;44.602;10.976;2024-01-15T07:16:22;99800.72;;;17.74;42.28
48200;BME280;33990;44.602;10.976;2024-01-15T07:19:04;99791.78;;;17.74;42.27
48200;BME280;33990;44.602;10.976;2024-01-15T07:21:32;99791.78;;;17.74;42.10
48200;BME280;33990;44.602;10.976;2024-01-15T07:23:59;99808.75;;;17.74;42.13
48200;BME280;33990;44.602;10.976;2024-01-15T07:26:26;99805.34;;;17.72;42.23
48200;BME280;33990;44.602;10.976;2024-01-15T07:28:54;99807.00;;;17.73;42.44
48200;BME280;33990;44.602;10.976;2024-01-15T07:31:21;99803.50;;;17.73;42.42
48200;BME280;33990;44.602;10.976;2024-01-15T07:33:49;99790.88;;;17.75;42.50
48200;BME280;33990;44.602;10.976;2024-01-15T07:36:16;99790.03;;;17.74;42.70
48200;BME280;33990;44.602;10.976;2024-01-15T07:38:43;99789.13;;;17.74;42.81
48200;BME280;33990;44.602;10.976;2024-01-15T07:41:12;99780.41;;;17.72;42.75
48200;BME280;33990;44.602;10.976;2024-01-15T07:43:39;99785.75;;;17.72;42.84
48200;BME280;33990;44.602;10.976;2024-01-15T07:46:06;99800.97;;;17.71;42.80
48200;BME280;33990;44.602;10.976;2024-01-15T07:48:34;99805.63;;;17.69;42.93
48200;BME280;33990;44.602;10.976;2024-01-15T07:51:02;99805.63;;;17.69;43.17
48200;BME280;33990;44.602;10.976;2024-01-15T07:53:31;99810.00;;;17.70;43.27
48200;BME280;33990;44.602;10.976;2024-01-15T07:55:58;99806.63;;;17.68;43.14
48200;BME280;33990;44.602;10.976;2024-01-15T07:58:25;99797.91;;;17.66;42.30
48200;BME280;33990;44.602;10.976;2024-01-15T08:00:53;99794.53;;;17.64;41.53
48200;BME280;33990;44.602;10.976;2024-01-15T08:03:20;99811.69;;;17.62;41.01
48200;BME280;33990;44.602;10.976;2024-01-15T08:05:48;99806.78;;;17.57;40.84
48200;BME280;33990;44.602;10.976;2024-01-15T08:08:19;99806.94;;;17.55;40.75
48200;BME280;33990;44.602;10.976;2024-01-15T08:10:49;99809.47;;;17.57;41.44
48200;BME280;33990;44.602;10.976;2024-01-15T08:13:16;99805.78;;;17.58;41.64
48200;BME280;33990;44.602;10.976;2024-01-15T08:15:44;99800.44;;;17.58;41.74
48200;BME280;33990;44.602;10.976;2024-01-15T08:18:11;99791.44;;;17.59;41.71
48200;BME280;33990;44.602;10.976;2024-01-15T08:20:39;99807.50;;;17.59;41.70
48200;BME280;33990;44.602;10.976;2024-01-15T08:23:08;99812.84;;;17.59;41.74
48200;BME280;33990;44.602;10.976;2024-01-15T08:25:36;99819.88;;;17.60;41.80
48200;BME280;33990;44.602;10.976;2024-01-15T08:28:04;99818.19;;;17.59;41.72
48200;BME280;33990;44.602;10.976;2024-01-15T08:30:31;99820.03;;;17.59;41.77
48200;BME280;33990;44.602;10.976;2024-01-15T08:32:59;99825.25;;;17.60;41.72
48200;BME280;33990;44.602;10.976;2024-01-15T08:35:37;99819.88;;;17.60;41.81
48200;BME280;33990;44.602;10.976;2024-01-15T08:38:04;99805.78;;;17.58;41.74
48200;BME280;33990;44.602;10.976;2024-01-15T08:40:33;99790.59;;;17.59;41.66
48200;BME280;33990;44.602;10.976;2024-01-15T08:43:00;99787.06;;;17.58;41.72
48200;BME280;33990;44.602;10.976;2024-01-15T08:45:29;99800.44;;;17.58;41.74
48200;BME280;33990;44.602;10.976;2024-01-15T08:47:58;99811.13;;;17.58;41.74
48200;BME280;33990;44.602;10.976;2024-01-15T08:50:26;99808.34;;;17.60;41.65
48200;BME280;33990;44.602;10.976;2024-01-15T08:52:53;99812.84;;;17.59;41.75
48200;BME280;33990;44.602;10.976;2024-01-15T08:55:21;99823.41;;;17.61;41.79
48200;BME280;33990;44.602;10.976;2024-01-15T08:57:50;99818.03;;;17.61;41.69
48200;BME280;33990;44.602;10.976;2024-01-15T09:00:18;99815.53;;;17.59;41.71
48200;BME280;33990;44.602;10.976;2024-01-15T09:02:45;99819.88;;;17.60;41.84
48200;BME280;33990;44.602;10.976;2024-01-15T09:05:13;99820.88;;;17.59;41.58
48200;BME280;33990;44.602;10.976;2024-01-15T09:07:41;99821.84;;;17.58;41.75
48200;BME280;33990;44.602;10.976;2024-01-15T09:10:09;99827.91;;;17.60;41.79
48200;BME280;33990;44.602;10.976;2024-01-15T09:12:36;99827.06;;;17.60;41.85
48200;BME280;33990;44.602;10.976;2024-01-15T09:15:05;99833.25;;;17.60;41.92
48200;BME280;33990;44.602;10.976;2024-01-15T09:17:32;99821.72;;;17.60;41.79
48200;BME280;33990;44.602;10.976;2024-01-15T09:20:00;99819.88;;;17.60;41.86
48200;BME280;33990;44.602;10.976;2024-01-15T09:22:28;99823.56;;;17.59;41.83
48200;BME280;33990;44.602;10.976;2024-01-15T09:24:55;99816.22;;;17.61;41.78
48200;BME280;33990;44.602;10.976;2024-01-15T09:27:23;99825.25;;;17.60;41.83
48200;BME280;33990;44.602;10.976;2024-01-15T09:29:50;99824.41;;;17.60;41.70
48200;BME280;33990;44.602;10.976;2024-01-15T09:32:17;99823.41;;;17.61;41.71
48200;BME280;33990;44.602;10.976;2024-01-15T09:34:46;99801.16;;;17.60;41.89
48200;BME280;33990;44.602;10.976;2024-01-15T09:37:14;99811.69;;;17.62;41.76
48200;BME280;33990;44.602;10.976;2024-01-15T09:40:01;99806.50;;;17.60;41.83
48200;BME280;33990;44.602;10.976;2024-01-15T09:42:30;99806.50;;;17.60;41.76
48200;BME280;33990;44.602;10.976;2024-01-15T09:44:58;99822.56;;;17.60;41.79
48200;BME280;33990;44.602;10.976;2024-01-15T09:47:25;99812.84;;;17.59;41.67
48200;BME280;33990;44.602;10.976;2024-01-15T09:49:52;99805.78;;;17.58;41.80
48200;BME280;33990;44.602;10.976;2024-01-15T09:52:20;99807.50;;;17.59;41.76
48200;BME280;33990;44.602;10.976;2024-01-15T09:54:49;99806.66;;;17.59;41.70
48200;BME280;33990;44.602;10.976;2024-01-15T09:57:17;99796.78;;;17.59;41.91
48200;BME280;33990;44.602;10.976;2024-01-15T09:59:45;99792.41;;;17.58;41.82
48200;BME280;33990;44.602;10.976;2024-01-15T10:02:14;99786.22;;;17.58;41.86
48200;BME280;33990;44.602;10.976;2024-01-15T10:04:45;99788.75;;;17.59;42.00
48200;BME280;33990;44.602;10.976;2024-01-15T10:07:15;99792.41;;;17.58;42.16
48200;BME280;33990;44.602;10.976;2024-01-15T10:09:46;99788.75;;;17.59;42.07
48200;BME280;33990;44.602;10.976;2024-01-15T10:12:15;99782.41;;;17.60;42.11
48200;BME280;33990;44.602;10.976;2024-01-15T10:14:43;99780.75;;;17.59;42.20
48200;BME280;33990;44.602;10.976;2024-01-15T10:17:14;99771.72;;;17.60;42.16
48200;BME280;33990;44.602;10.976;2024-01-15T10:19:47;99761.84;;;17.61;42.20
48200;BME280;33990;44.602;10.976;2024-01-15T10:22:17;99769.88;;;17.61;42.21
48200;BME280;33990;44.602;10.976;2024-01-15T10:24:47;99758.34;;;17.60;42.38
48200;BME280;33990;44.602;10.976;2024-01-15T10:27:15;99767.03;;;17.62;42.32
48200;BME280;33990;44.602;10.976;2024-01-15T10:29:43;99777.75;;;17.62;42.17
48200;BME280;33990;44.602;10.976;2024-01-15T10:32:11;99762.69;;;17.61;42.33
48200;BME280;33990;44.602;10.976;2024-01-15T10:34:40;99751.84;;;17.63;42.20
48200;BME280;33990;44.602;10.976;2024-01-15T10:37:09;99751.13;;;17.61;42.27
48200;BME280;33990;44.602;10.976;2024-01-15T10:39:37;99747.34;;;17.63;42.22
48200;BME280;33990;44.602;10.976;2024-01-15T10:42:05;99736.47;;;17.65;42.20
48200;BME280;33990;44.602;10.976;2024-01-15T10:44:35;99744.50;;;17.65;42.06
48200;BME280;33990;44.602;10.976;2024-01-15T10:47:04;99746.19;;;17.66;42.14
48200;BME280;33990;44.602;10.976;2024-01-15T10:49:31;99737.19;;;17.67;42.05
48200;BME280;33990;44.602;10.976;2024-01-15T10:52:01;99731.69;;;17.68;42.00
48200;BME280;33990;44.602;10.976;2024-01-15T10:54:30;99727.31;;;17.67;42.00
48200;BME280;33990;44.602;10.976;2024-01-15T10:56:57;99736.88;;;17.70;42.06
48200;BME280;33990;44.602;10.976;2024-01-15T10:59:25;99720.97;;;17.68;41.99
48200;BME280;33990;44.602;10.976;2024-01-15T11:01:52;99715.63;;;17.68;42.01
48200;BME280;33990;44.602;10.976;2024-01-15T11:04:22;99710.09;;;17.70;41.90
48200;BME280;33990;44.602;10.976;2024-01-15T11:06:52;99710.09;;;17.70;41.83
48200;BME280;33990;44.602;10.976;2024-01-15T11:09:24;99699.41;;;17.70;41.81
48200;BME280;33990;44.602;10.976;2024-01-15T11:12:06;99691.38;;;17.70;41.84
48200;BME280;33990;44.602;10.976;2024-01-15T11:14:38;99687.00;;;17.69;41.75
48200;BME280;33990;44.602;10.976;2024-01-15T11:17:06;99681.66;;;17.69;41.81
48200;BME280;33990;44.602;10.976;2024-01-15T11:19:37;99669.13;;;17.69;41.66
48200;BME280;33990;44.602;10.976;2024-01-15T11:22:08;99662.91;;;17.69;41.57
48200;BME280;33990;44.602;10.976;2024-01-15T11:24:40;99660.41;;;17.67;41.72
48200;BME280;33990;44.602;10.976;2024-01-15T11:27:08;99651.53;;;17.67;41.71
48200;BME280;33990;44.602;10.976;2024-01-15T11:29:36;99652.38;;;17.67;41.66
48200;BME280;33990;44.602;10.976;2024-01-15T11:32:13;99645.19;;;17.68;41.59
48200;BME280;33990;44.602;10.976;2024-01-15T11:34:58;99635.47;;;17.67;41.73
48200;BME280;33990;44.602;10.976;2024-01-15T11:37:29;99655.06;;;17.67;41.60
48200;BME280;33990;44.602;10.976;2024-01-15T11:40:03;99643.50;;;17.67;41.52
48200;BME280;33990;44.602;10.976;2024-01-15T11:42:38;99642.66;;;17.66;41.60
48200;BME280;33990;44.602;10.976;2024-01-15T11:45:05;99630.97;;;17.67;41.59
48200;BME280;33990;44.602;10.976;2024-01-15T11:50:22;99620.25;;;17.67;41.60
48200;BME280;33990;44.602;10.976;2024-01-15T11:53:02;99620.25;;;17.67;41.67
48200;BME280;33990;44.602;10.976;2024-01-15T11:55:34;99608.56;;;17.68;41.55
48200;BME280;33990;44.602;10.976;2024-01-15T11:58:08;99614.91;;;17.67;41.56
48200;BME280;33990;44.602;10.976;2024-01-15T12:00:45;99609.56;;;17.67;41.52
48200;BME280;33990;44.602;10.976;2024-01-15T12:03:14;99600.69;;;17.67;41.61
48200;BME280;33990;44.602;10.976;2024-01-15T12:05:42;99591.81;;;17.66;41.56
48200;BME280;33990;44.602;10.976;2024-01-15T12:08:09;99586.31;;;17.68;41.60
48200;BME280;33990;44.602;10.976;2024-01-15T12:10:42;99576.72;;;17.65;41.62
48200;BME280;33990;44.602;10.976;2024-01-15T12:13:12;99577.56;;;17.66;41.58
48200;BME280;33990;44.602;10.976;2024-01-15T12:15:42;99576.72;;;17.65;41.60
48200;BME280;33990;44.602;10.976;2024-01-15T12:18:12;99582.09;;;17.65;41.77
48200;BME280;33990;44.602;10.976;2024-01-15T12:20:40;99576.72;;;17.65;41.96
48200;BME280;33990;44.602;10.976;2024-01-15T12:23:09;99567.03;;;17.64;42.02
48200;BME280;33990;44.602;10.976;2024-01-15T12:25:37;99559.84;;;17.65;41.79
48200;BME280;33990;44.602;10.976;2024-01-15T12:28:06;99552.81;;;17.64;41.99
48200;BME280;33990;44.602;10.976;2024-01-15T12:30:34;99542.09;;;17.64;42.04
48200;BME280;33990;44.602;10.976;2024-01-15T12:33:04;99536.75;;;17.64;41.97
48200;BME280;33990;44.602;10.976;2024-01-15T12:35:33;99534.91;;;17.64;41.98
48200;BME280;33990;44.602;10.976;2024-01-15T12:38:01;99524.22;;;17.64;41.96
48200;BME280;33990;44.602;10.976;2024-01-15T12:40:33;99513.50;;;17.64;42.01
48200;BME280;33990;44.602;10.976;2024-01-15T12:43:07;99514.50;;;17.63;42.05
48200;BME280;33990;44.602;10.976;2024-01-15T12:45:36;99499.28;;;17.64;42.11
48200;BME280;33990;44.602;10.976;2024-01-15T12:48:05;99494.75;;;17.64;42.05
48200;BME280;33990;44.602;10.976;2024-01-15T12:50:33;99488.56;;;17.64;41.93
48200;BME280;33990;44.602;10.976;2024-01-15T12:53:01;99494.75;;;17.64;41.93
48200;BME280;33990;44.602;10.976;2024-01-15T12:55:29;99498.44;;;17.63;42.04